createdAt,value
2022-10-11T00:01:31.751Z,10.41
2022-10-11T00:03:58.163Z,10.42
2022-10-11T00:06:24.479Z,10.35
2022-10-11T00:08:50.811Z,10.33
2022-10-11T00:11:17.195Z,10.23
2022-10-11T00:13:43.545Z,10.20
2022-10-11T00:16:11.626Z,10.31
2022-10-11T00:18:38.891Z,10.41
2022-10-11T00:21:08.429Z,10.17
2022-10-11T00:23:35.193Z,10.19
2022-10-11T00:26:04.655Z,10.10
2022-10-11T00:28:31.835Z,10.16
2022-10-11T00:30:58.252Z,10.18
2022-10-11T00:33:24.770Z,10.19
2022-10-11T00:35:51.205Z,10.36
2022-10-11T00:38:17.982Z,10.25
2022-10-11T00:40:45.735Z,10.20
2022-10-11T00:43:18.084Z,10.47
2022-10-11T00:45:56.801Z,10.67
2022-10-11T00:48:27.649Z,10.41
2022-10-11T00:50:58.360Z,10.64
2022-10-11T00:53:26.209Z,10.66
2022-10-11T00:56:04.655Z,10.62
2022-10-11T00:58:33.580Z,10.55
2022-10-11T01:00:59.944Z,10.51
2022-10-11T01:03:28.362Z,10.47
2022-10-11T01:05:55.587Z,10.67
2022-10-11T01:08:23.120Z,10.50
2022-10-11T01:10:49.551Z,10.57
2022-10-11T01:13:27.818Z,10.67
2022-10-11T01:16:23.254Z,10.45
2022-10-11T01:18:57.747Z,10.42
2022-10-11T01:21:52.821Z,10.36
2022-10-11T01:24:28.275Z,10.51
2022-10-11T01:27:19.493Z,10.24
2022-10-11T01:30:18.155Z,10.22
2022-10-11T01:33:05.225Z,10.09
2022-10-11T01:36:03.639Z,10.07
2022-10-11T01:38:34.817Z,10.10
2022-10-11T01:41:10.571Z,10.01
2022-10-11T01:43:39.257Z,9.93
2022-10-11T01:46:08.264Z,9.69
2022-10-11T01:48:53.838Z,9.76
2022-10-11T01:51:24.971Z,9.78
2022-10-11T01:54:18.778Z,9.72
2022-10-11T01:57:26.174Z,9.61
2022-10-11T02:00:01.747Z,9.68
2022-10-11T02:03:21.556Z,9.58
2022-10-11T02:05:57.545Z,9.54
2022-10-11T02:08:49.810Z,9.64
2022-10-11T02:11:24.468Z,9.57
2022-10-11T02:13:57.476Z,9.47
2022-10-11T02:16:31.303Z,9.37
2022-10-11T02:18:59.415Z,9.55
2022-10-11T02:21:27.359Z,9.36
2022-10-11T02:23:59.933Z,9.33
2022-10-11T02:26:30.603Z,9.24
2022-10-11T02:29:01.270Z,9.18
2022-10-11T02:31:30.429Z,9.27
2022-10-11T02:34:06.105Z,9.22
2022-10-11T02:37:16.581Z,9.17
2022-10-11T02:39:47.285Z,9.21
2022-10-11T02:42:38.747Z,9.11
2022-10-11T02:45:13.823Z,9.02
2022-10-11T02:47:42.387Z,9.11
2022-10-11T02:50:11.461Z,9.00
2022-10-11T02:52:37.876Z,9.16
2022-10-11T02:55:04.649Z,9.17
2022-10-11T02:57:30.967Z,9.12
2022-10-11T02:59:57.294Z,9.28
2022-10-11T03:02:23.658Z,9.37
2022-10-11T03:04:50.078Z,9.66
2022-10-11T03:07:16.504Z,9.60
2022-10-11T03:09:43.008Z,9.53
2022-10-11T03:12:09.362Z,9.44
2022-10-11T03:14:35.697Z,9.78
2022-10-11T03:17:23.808Z,9.79
2022-10-11T03:19:48.396Z,9.75
2022-10-11T03:22:14.991Z,9.80
2022-10-11T03:24:41.379Z,9.71
2022-10-11T03:27:07.728Z,9.60
2022-10-11T03:29:34.074Z,9.55
2022-10-11T03:32:00.494Z,9.57
2022-10-11T03:34:26.850Z,9.41
2022-10-11T03:36:53.180Z,9.43
2022-10-11T03:39:19.677Z,9.48
2022-10-11T03:41:46.096Z,9.50
2022-10-11T03:44:12.552Z,9.38
2022-10-11T03:46:38.971Z,9.25
2022-10-11T03:49:05.294Z,9.37
2022-10-11T03:51:31.802Z,9.16
2022-10-11T03:53:58.215Z,9.00
2022-10-11T03:56:24.697Z,9.03
2022-10-11T03:58:51.013Z,9.14
2022-10-11T04:01:17.630Z,8.96
2022-10-11T04:03:44.047Z,9.19
2022-10-11T04:06:10.373Z,9.01
2022-10-11T04:08:36.708Z,8.90
2022-10-11T04:11:03.348Z,8.75
2022-10-11T04:13:29.655Z,8.85
2022-10-11T04:15:56.016Z,8.82
2022-10-11T04:18:22.371Z,9.05
2022-10-11T04:20:48.781Z,9.00
2022-10-11T04:23:15.105Z,9.02
2022-10-11T04:25:42.122Z,8.93
2022-10-11T04:28:09.238Z,8.90
2022-10-11T04:30:35.622Z,8.84
2022-10-11T04:33:02.090Z,8.90
2022-10-11T04:35:28.577Z,8.84
2022-10-11T04:37:54.878Z,8.87
2022-10-11T04:40:21.205Z,8.74
2022-10-11T04:42:47.530Z,8.64
2022-10-11T04:45:14.002Z,8.58
2022-10-11T04:47:41.050Z,8.66
2022-10-11T04:50:07.974Z,8.69
2022-10-11T04:52:34.454Z,8.59
2022-10-11T04:55:00.799Z,8.59
2022-10-11T04:57:27.121Z,8.47
2022-10-11T04:59:53.425Z,8.53
2022-10-11T05:02:19.831Z,8.61
2022-10-11T05:04:46.349Z,8.57
2022-10-11T05:07:12.702Z,8.76
2022-10-11T05:09:39.038Z,8.65
2022-10-11T05:12:05.877Z,8.63
2022-10-11T05:14:32.186Z,8.43
2022-10-11T05:16:58.504Z,8.43
2022-10-11T05:19:24.862Z,8.39
2022-10-11T05:21:51.178Z,8.78
2022-10-11T05:24:17.499Z,8.74
2022-10-11T05:26:43.785Z,8.86
2022-10-11T05:29:10.128Z,9.02
2022-10-11T05:31:36.482Z,8.99
2022-10-11T05:34:02.837Z,8.84
2022-10-11T05:36:29.200Z,9.01
2022-10-11T05:38:55.533Z,9.06
2022-10-11T05:41:21.916Z,9.04
2022-10-11T05:43:48.224Z,9.00
2022-10-11T05:46:14.949Z,9.03
2022-10-11T05:48:41.282Z,9.18
2022-10-11T05:51:10.387Z,9.14
2022-10-11T05:53:38.333Z,9.27
2022-10-11T05:56:05.776Z,9.12
2022-10-11T05:58:32.395Z,9.06
2022-10-11T06:00:58.853Z,8.93
2022-10-11T06:03:25.258Z,9.09
2022-10-11T06:05:56.486Z,9.00
2022-10-11T06:08:23.386Z,8.75
2022-10-11T06:10:49.694Z,8.66
2022-10-11T06:13:16.084Z,8.82
2022-10-11T06:15:42.423Z,8.70
2022-10-11T06:18:08.868Z,8.49
2022-10-11T06:20:35.221Z,8.44
2022-10-11T06:23:02.871Z,8.51
2022-10-11T06:25:29.251Z,8.49
2022-10-11T06:27:55.708Z,8.30
2022-10-11T06:30:22.339Z,8.40
2022-10-11T06:32:48.641Z,8.28
2022-10-11T06:35:15.000Z,8.37
2022-10-11T06:37:41.441Z,8.41
2022-10-11T06:40:08.396Z,8.32
2022-10-11T06:42:34.839Z,8.28
2022-10-11T06:45:01.160Z,8.54
2022-10-11T06:47:27.553Z,8.50
2022-10-11T06:49:53.918Z,8.31
2022-10-11T06:52:20.254Z,8.12
2022-10-11T06:54:46.651Z,8.15
2022-10-11T06:57:13.034Z,8.16
2022-10-11T06:59:39.350Z,8.20
2022-10-11T07:02:06.734Z,8.43
2022-10-11T07:04:33.849Z,8.29
2022-10-11T07:07:00.400Z,8.31
2022-10-11T07:09:26.739Z,8.40
2022-10-11T07:11:53.181Z,8.59
2022-10-11T07:14:19.507Z,8.42
2022-10-11T07:16:45.977Z,8.42
2022-10-11T07:19:12.354Z,8.37
2022-10-11T07:21:38.756Z,8.50
2022-10-11T07:24:05.602Z,8.38
2022-10-11T07:26:38.122Z,8.55
2022-10-11T07:29:09.023Z,8.56
2022-10-11T07:31:38.196Z,8.36
2022-10-11T07:34:04.586Z,8.59
2022-10-11T07:36:30.946Z,8.85
2022-10-11T07:38:57.349Z,8.99
2022-10-11T07:41:23.869Z,8.99
2022-10-11T07:43:50.937Z,9.23
2022-10-11T07:46:18.624Z,9.14
2022-10-11T07:48:45.011Z,9.44
2022-10-11T07:51:17.557Z,9.38
2022-10-11T07:53:46.422Z,9.46
2022-10-11T07:56:15.137Z,9.61
2022-10-11T07:58:42.609Z,9.59
2022-10-11T08:01:10.711Z,9.75
2022-10-11T08:03:38.160Z,9.76
2022-10-11T08:06:08.452Z,9.91
2022-10-11T08:08:36.485Z,9.79
2022-10-11T08:11:02.996Z,9.80
2022-10-11T08:13:29.547Z,9.78
2022-10-11T08:15:56.263Z,9.90
2022-10-11T08:18:22.795Z,9.77
2022-10-11T08:20:49.235Z,9.86
2022-10-11T08:23:17.047Z,10.08
2022-10-11T08:25:47.286Z,9.99
2022-10-11T08:28:17.945Z,10.09
2022-10-11T08:30:53.050Z,10.00
2022-10-11T08:33:21.403Z,10.12
2022-10-11T08:35:48.695Z,10.03
2022-10-11T08:38:16.578Z,10.11
2022-10-11T08:40:55.235Z,10.18
2022-10-11T08:43:41.878Z,10.18
2022-10-11T08:46:10.712Z,10.26
2022-10-11T08:48:47.200Z,10.30
2022-10-11T08:51:23.198Z,10.28
2022-10-11T08:54:07.164Z,10.36
2022-10-11T08:56:38.768Z,10.49
2022-10-11T08:59:10.831Z,10.48
2022-10-11T09:01:44.474Z,10.44
2022-10-11T09:04:14.162Z,10.45
2022-10-11T09:06:53.454Z,10.53
2022-10-11T09:09:20.145Z,10.63
2022-10-11T09:12:03.732Z,10.63
2022-10-11T09:14:48.506Z,10.61
2022-10-11T09:17:29.818Z,10.53
2022-10-11T09:20:14.592Z,10.70
2022-10-11T09:23:03.171Z,10.78
2022-10-11T09:25:46.824Z,10.84
2022-10-11T09:28:31.770Z,10.84
2022-10-11T09:30:59.303Z,10.99
2022-10-11T09:33:43.892Z,11.01
2022-10-11T09:36:37.204Z,11.02
2022-10-11T09:39:24.594Z,11.13
2022-10-11T09:41:55.456Z,11.06
2022-10-11T09:44:27.994Z,10.94
2022-10-11T09:46:56.034Z,11.12
2022-10-11T09:49:28.364Z,11.23
2022-10-11T09:51:57.362Z,11.40
2022-10-11T09:54:38.726Z,11.51
2022-10-11T09:57:05.222Z,11.60
2022-10-11T09:59:33.914Z,11.66
2022-10-11T10:02:12.623Z,11.77
2022-10-11T10:05:04.886Z,11.85
2022-10-11T10:07:32.389Z,11.97
2022-10-11T10:09:59.075Z,11.99
2022-10-11T10:12:30.312Z,12.10
2022-10-11T10:15:13.678Z,12.20
2022-10-11T10:17:48.844Z,12.17
2022-10-11T10:20:34.522Z,12.23
2022-10-11T10:23:08.403Z,12.15
2022-10-11T10:25:43.118Z,12.20
2022-10-11T10:28:24.845Z,12.23
2022-10-11T10:30:55.931Z,12.34
2022-10-11T10:33:25.201Z,12.38
2022-10-11T10:36:19.057Z,12.35
2022-10-11T10:38:52.379Z,12.43
2022-10-11T10:41:19.453Z,12.31
2022-10-11T10:43:53.509Z,12.46
2022-10-11T10:46:38.666Z,12.47
2022-10-11T10:52:32.048Z,12.35
2022-10-11T10:55:19.803Z,12.36
2022-10-11T10:58:07.112Z,12.37
2022-10-11T11:00:48.301Z,12.33
2022-10-11T11:03:17.751Z,12.33
2022-10-11T11:06:25.496Z,12.35
2022-10-11T11:09:03.263Z,12.34
2022-10-11T11:11:42.787Z,12.25
2022-10-11T11:14:44.452Z,12.34
2022-10-11T11:17:45.165Z,12.32
2022-10-11T11:20:20.849Z,12.30
2022-10-11T11:23:17.998Z,12.32
2022-10-11T11:26:26.002Z,12.32
2022-10-11T11:29:00.125Z,12.36
2022-10-11T11:31:35.636Z,12.36
2022-10-11T11:34:18.871Z,12.34
2022-10-11T11:36:54.154Z,12.40
2022-10-11T11:39:34.770Z,12.39
2022-10-11T11:42:21.226Z,12.36
2022-10-11T11:44:49.853Z,12.33
2022-10-11T11:47:42.392Z,12.39
2022-10-11T11:50:25.178Z,12.40
2022-10-11T11:53:11.590Z,12.48
2022-10-11T11:55:49.169Z,12.54
2022-10-11T11:58:37.188Z,12.66
2022-10-11T12:01:31.534Z,12.73
2022-10-11T12:04:12.349Z,12.87
2022-10-11T12:06:52.509Z,12.88
2022-10-11T12:09:25.714Z,12.87
2022-10-11T12:12:06.916Z,12.99
2022-10-11T12:14:33.333Z,13.02
2022-10-11T12:17:16.277Z,13.09
2022-10-11T12:20:01.015Z,13.08
2022-10-11T12:22:27.584Z,13.15
2022-10-11T12:24:56.737Z,13.14
2022-10-11T12:27:40.230Z,13.15
2022-10-11T12:30:48.009Z,13.16
2022-10-11T12:33:23.657Z,13.05
2022-10-11T12:35:52.886Z,13.21
2022-10-11T12:38:33.071Z,13.09
2022-10-11T12:41:00.595Z,13.12
2022-10-11T12:43:36.040Z,13.03
2022-10-11T12:46:41.329Z,13.00
2022-10-11T12:49:45.171Z,13.02
2022-10-11T12:52:17.715Z,13.01
2022-10-11T12:55:09.234Z,12.93
2022-10-11T12:57:40.501Z,12.93
2022-10-11T13:00:23.761Z,12.89
2022-10-11T13:02:50.258Z,12.79
2022-10-11T13:05:45.029Z,12.93
2022-10-11T13:08:22.566Z,12.95
2022-10-11T13:10:49.015Z,12.82
2022-10-11T13:13:39.447Z,12.75
2022-10-11T13:16:16.807Z,12.69
2022-10-11T13:18:45.811Z,12.66
2022-10-11T13:21:26.862Z,12.64
2022-10-11T13:24:00.410Z,12.61
2022-10-11T13:26:29.055Z,12.61
2022-10-11T13:28:55.658Z,12.54
2022-10-11T13:31:23.945Z,12.57
2022-10-11T13:33:54.814Z,12.57
2022-10-11T13:36:24.255Z,12.52
2022-10-11T13:39:01.476Z,12.46
2022-10-11T13:41:29.877Z,12.47
2022-10-11T13:43:58.608Z,12.41
2022-10-11T13:46:27.868Z,12.45
2022-10-11T13:49:06.579Z,12.33
2022-10-11T13:51:37.239Z,12.35
2022-10-11T13:54:13.056Z,12.40
2022-10-11T13:56:50.820Z,12.44
2022-10-11T13:59:28.121Z,12.49
2022-10-11T14:02:00.146Z,12.52
2022-10-11T14:04:29.778Z,12.67
2022-10-11T14:07:03.266Z,12.69
2022-10-11T14:09:36.732Z,12.82
2022-10-11T14:12:38.049Z,12.70
2022-10-11T14:15:07.055Z,12.77
2022-10-11T14:17:41.210Z,12.78
2022-10-11T14:20:19.619Z,12.75
2022-10-11T14:22:46.247Z,12.87
2022-10-11T14:25:13.260Z,12.91
2022-10-11T14:27:40.010Z,12.88
2022-10-11T14:30:27.437Z,12.78
2022-10-11T14:32:56.525Z,12.62
2022-10-11T14:35:26.162Z,12.63
2022-10-11T14:37:53.152Z,12.62
2022-10-11T14:40:30.732Z,12.64
2022-10-11T14:42:57.618Z,12.60
2022-10-11T14:45:24.107Z,12.72
2022-10-11T14:47:50.966Z,12.51
2022-10-11T14:50:42.031Z,12.49
2022-10-11T14:53:10.762Z,12.54
2022-10-11T14:55:39.528Z,12.57
2022-10-11T14:58:08.574Z,12.38
2022-10-11T15:00:36.655Z,12.28
2022-10-11T15:03:04.903Z,12.33
2022-10-11T15:05:34.238Z,12.28
2022-10-11T15:08:01.754Z,12.26
2022-10-11T15:10:38.133Z,12.23
2022-10-11T15:13:06.927Z,12.31
2022-10-11T15:15:36.754Z,12.06
2022-10-11T15:18:06.030Z,12.28
2022-10-11T15:20:37.690Z,12.12
2022-10-11T15:23:05.670Z,12.02
2022-10-11T15:25:32.332Z,11.94
2022-10-11T15:27:58.935Z,11.69
2022-10-11T15:30:29.087Z,11.72
2022-10-11T15:32:55.490Z,11.67
2022-10-11T15:35:23.578Z,11.65
2022-10-11T15:37:58.376Z,11.52
2022-10-11T15:40:33.930Z,11.39
2022-10-11T15:43:00.349Z,11.47
2022-10-11T15:45:26.970Z,11.56
2022-10-11T15:47:53.534Z,11.43
2022-10-11T15:50:35.147Z,11.89
2022-10-11T15:53:05.058Z,11.87
2022-10-11T15:55:33.253Z,11.90
2022-10-11T15:57:59.882Z,11.89
2022-10-11T16:00:27.017Z,12.00
2022-10-11T16:02:53.927Z,12.01
2022-10-11T16:05:21.955Z,12.09
2022-10-11T16:07:48.476Z,12.16
2022-10-11T16:10:14.991Z,12.15
2022-10-11T16:12:41.430Z,12.11
2022-10-11T16:15:08.376Z,12.09
2022-10-11T16:17:34.791Z,12.02
2022-10-11T16:20:01.220Z,12.02
2022-10-11T16:22:27.734Z,12.03
2022-10-11T16:24:54.082Z,11.93
2022-10-11T16:27:20.526Z,11.89
2022-10-11T16:29:46.925Z,11.78
2022-10-11T16:32:13.483Z,11.75
2022-10-11T16:34:39.875Z,11.69
2022-10-11T16:37:06.189Z,11.63
2022-10-11T16:39:33.702Z,11.58
2022-10-11T16:42:00.056Z,11.48
2022-10-11T16:44:27.776Z,11.44
2022-10-11T16:46:55.139Z,11.18
2022-10-11T16:49:25.051Z,11.15
2022-10-11T16:51:53.342Z,11.14
2022-10-11T16:54:21.053Z,11.14
2022-10-11T16:56:49.426Z,10.63
2022-10-11T16:59:16.152Z,10.55
2022-10-11T17:01:43.306Z,10.69
2022-10-11T17:04:09.663Z,10.66
2022-10-11T17:06:36.122Z,10.69
2022-10-11T17:09:02.586Z,10.56
2022-10-11T17:11:28.944Z,10.47
2022-10-11T17:13:55.324Z,10.31
2022-10-11T17:16:22.524Z,10.39
2022-10-11T17:18:49.365Z,10.23
2022-10-11T17:21:17.765Z,10.23
2022-10-11T17:23:44.314Z,10.44
2022-10-11T17:26:15.999Z,10.41
2022-10-11T17:28:42.588Z,10.42
2022-10-11T17:31:09.658Z,10.43
2022-10-11T17:33:36.553Z,10.43
2022-10-11T17:36:27.779Z,10.37
2022-10-11T17:38:54.164Z,10.24
2022-10-11T17:41:20.907Z,10.34
2022-10-11T17:43:47.982Z,10.24
2022-10-11T17:46:16.512Z,10.07
2022-10-11T17:48:44.468Z,10.13
2022-10-11T17:51:14.326Z,9.92
2022-10-11T17:53:40.960Z,9.95
2022-10-11T17:56:09.727Z,9.63
2022-10-11T17:58:36.799Z,9.65
2022-10-11T18:01:10.834Z,9.72
2022-10-11T18:03:37.808Z,9.67
2022-10-11T18:06:06.103Z,9.82
2022-10-11T18:08:40.440Z,9.88
2022-10-11T18:11:13.200Z,9.99
2022-10-11T18:13:42.785Z,10.07
2022-10-11T18:16:09.921Z,10.02
2022-10-11T18:18:36.690Z,10.03
2022-10-11T18:21:03.706Z,10.04
2022-10-11T18:23:30.703Z,10.08
2022-10-11T18:25:57.232Z,10.03
2022-10-11T18:28:23.688Z,10.11
2022-10-11T18:30:50.150Z,10.24
2022-10-11T18:33:16.807Z,10.29
2022-10-11T18:35:43.175Z,10.26
2022-10-11T18:38:09.633Z,10.32
2022-10-11T18:40:44.702Z,10.24
2022-10-11T18:43:13.303Z,10.20
2022-10-11T18:45:39.652Z,10.08
2022-10-11T18:48:08.572Z,10.04
2022-10-11T18:50:35.561Z,9.90
2022-10-11T18:53:02.132Z,9.86
2022-10-11T18:55:28.726Z,9.94
2022-10-11T18:57:55.106Z,9.69
2022-10-11T19:00:40.061Z,9.64
2022-10-11T19:03:07.365Z,9.56
2022-10-11T19:05:33.737Z,9.52
2022-10-11T19:08:00.160Z,9.37
2022-10-11T19:10:26.524Z,9.44
2022-10-11T19:12:52.937Z,9.30
2022-10-11T19:15:19.340Z,9.43
2022-10-11T19:17:45.724Z,9.40
2022-10-11T19:20:12.756Z,9.48
2022-10-11T19:22:39.098Z,9.39
2022-10-11T19:25:06.180Z,9.45
2022-10-11T19:27:32.675Z,9.42
2022-10-11T19:30:00.284Z,9.49
2022-10-11T19:32:26.677Z,9.38
2022-10-11T19:34:53.116Z,9.38
2022-10-11T19:37:19.544Z,9.49
2022-10-11T19:39:45.922Z,9.47
2022-10-11T19:42:12.299Z,9.60
2022-10-11T19:44:39.778Z,9.59
2022-10-11T19:47:06.581Z,9.60
2022-10-11T19:49:32.987Z,9.56
2022-10-11T19:52:00.977Z,9.61
2022-10-11T19:54:27.370Z,9.61
2022-10-11T19:56:53.782Z,9.66
2022-10-11T19:59:20.217Z,9.58
2022-10-11T20:01:52.067Z,9.65
2022-10-11T20:04:47.473Z,9.46
2022-10-11T20:07:06.701Z,9.52
2022-10-11T20:09:33.112Z,9.45
2022-10-11T20:11:59.551Z,9.51
2022-10-11T20:14:25.931Z,9.46
2022-10-11T20:16:52.713Z,9.44
2022-10-11T20:19:19.355Z,9.49
2022-10-11T20:21:45.862Z,9.64
2022-10-11T20:24:12.411Z,9.74
2022-10-11T20:26:39.291Z,9.82
2022-10-11T20:29:06.315Z,10.02
2022-10-11T20:31:34.528Z,10.18
2022-10-11T20:34:03.975Z,10.38
2022-10-11T20:36:30.937Z,10.44
2022-10-11T20:38:58.621Z,10.61
2022-10-11T20:41:27.705Z,10.63
2022-10-11T20:43:56.306Z,10.58
2022-10-11T20:46:25.003Z,10.54
2022-10-11T20:48:58.890Z,10.72
2022-10-11T20:51:28.733Z,10.73
2022-10-11T20:53:55.395Z,10.77
2022-10-11T20:56:22.412Z,10.66
2022-10-11T20:58:53.689Z,10.53
2022-10-11T21:01:23.166Z,10.57
2022-10-11T21:03:50.296Z,10.31
2022-10-11T21:06:16.823Z,10.22
2022-10-11T21:08:43.974Z,10.15
2022-10-11T21:11:10.934Z,10.04
2022-10-11T21:13:37.757Z,10.04
2022-10-11T21:16:06.787Z,10.37
2022-10-11T21:18:33.278Z,10.38
2022-10-11T21:21:06.285Z,10.33
2022-10-11T21:23:32.733Z,10.20
2022-10-11T21:26:04.040Z,10.08
2022-10-11T21:28:30.853Z,10.13
2022-10-11T21:31:03.670Z,10.11
2022-10-11T21:33:30.323Z,9.94
2022-10-11T21:35:57.392Z,9.79
2022-10-11T21:38:23.762Z,9.94
2022-10-11T21:40:50.143Z,10.00
2022-10-11T21:43:16.487Z,10.16
2022-10-11T21:45:43.128Z,10.14
2022-10-11T21:48:09.492Z,10.13
2022-10-11T21:50:35.810Z,10.31
2022-10-11T21:53:02.235Z,10.47
2022-10-11T21:55:28.689Z,10.46
2022-10-11T21:57:55.641Z,10.36
2022-10-11T22:00:22.005Z,10.42
2022-10-11T22:02:48.643Z,10.36
2022-10-11T22:05:15.086Z,10.22
2022-10-11T22:07:41.439Z,10.28
2022-10-11T22:10:07.895Z,10.22
2022-10-11T22:12:34.606Z,10.17
2022-10-11T22:15:01.331Z,10.17
2022-10-11T22:17:27.680Z,9.92
2022-10-11T22:19:54.016Z,9.88
2022-10-11T22:22:20.333Z,9.88
2022-10-11T22:24:46.687Z,9.76
2022-10-11T22:27:13.091Z,9.69
2022-10-11T22:29:39.421Z,9.66
2022-10-11T22:32:05.800Z,9.88
2022-10-11T22:34:33.066Z,9.70
2022-10-11T22:36:59.434Z,9.73
2022-10-11T22:39:25.793Z,9.74
2022-10-11T22:41:53.617Z,9.86
2022-10-11T22:44:20.028Z,9.89
2022-10-11T22:46:46.395Z,9.77
2022-10-11T22:49:12.951Z,9.78
2022-10-11T22:51:39.295Z,9.62
2022-10-11T22:54:05.705Z,9.88
2022-10-11T22:56:32.090Z,10.02
2022-10-11T22:58:59.435Z,10.10
2022-10-11T23:01:25.793Z,10.08
2022-10-11T23:03:52.220Z,10.11
2022-10-11T23:06:18.868Z,10.17
2022-10-11T23:08:45.289Z,10.11
2022-10-11T23:11:12.478Z,10.17
2022-10-11T23:13:38.981Z,10.20
2022-10-11T23:16:07.553Z,10.22
2022-10-11T23:18:34.123Z,10.24
2022-10-11T23:21:01.242Z,10.31
2022-10-11T23:23:27.578Z,10.20
2022-10-11T23:26:06.439Z,10.10
2022-10-11T23:28:33.291Z,10.04
2022-10-11T23:30:59.863Z,10.10
2022-10-11T23:33:28.339Z,10.14
2022-10-11T23:35:54.708Z,9.98
2022-10-11T23:38:21.157Z,9.71
2022-10-11T23:40:47.489Z,9.39
2022-10-11T23:43:14.078Z,9.76
2022-10-11T23:45:40.397Z,9.92
2022-10-11T23:48:06.724Z,9.70
2022-10-11T23:50:33.068Z,9.83
2022-10-11T23:52:59.386Z,9.85
2022-10-11T23:55:25.721Z,9.93
2022-10-11T23:57:52.088Z,9.88
